Time;durP1;ratioP1;P1;durP2;ratioP2;P2;SDS_P1;SDS_P2;PMS_P1;PMS_P2;Temp;Humidity;BMP_temperature;BMP_pressure;BME280_temperature;BME280_humidity;BME280_pressure;Samples;Min_cycle;Max_cycle;Signal;HPM_P1;HPM_P2
2022/11/14 00:00:27;;;;;;;24.15;17.98;;;;;;;;;;5252403;28;20101;-82
2022/11/14 00:02:58;;;;;;;22.10;18.63;;;;;;;;;;5268689;28;20029;-82
2022/11/14 00:05:30;;;;;;;24.73;18.67;;;;;;;;;;5263427;28;20030;-82
2022/11/14 00:08:01;;;;;;;21.60;18.58;;;;;;;;;;5262362;28;20045;-81
2022/11/14 00:10:32;;;;;;;23.77;17.77;;;;;;;;;;5261140;28;20474;-82
2022/11/14 00:13:03;;;;;;;22.23;18.42;;;;;;;;;;5261354;28;20291;-81
2022/11/14 00:15:34;;;;;;;22.40;18.40;;;;;;;;;;5265441;28;20053;-82
2022/11/14 00:18:06;;;;;;;22.00;17.88;;;;;;;;;;5261686;28;20295;-82
2022/11/14 00:20:37;;;;;;;23.67;17.77;;;;;;;;;;5259395;28;20118;-82
2022/11/14 00:23:08;;;;;;;22.33;17.45;;;;;;;;;;5244496;28;20034;-82
2022/11/14 00:25:39;;;;;;;20.98;18.25;;;;;;;;;;5244388;28;20180;-82
2022/11/14 00:28:11;;;;;;;21.60;17.95;;;;;;;;;;5244225;28;20028;-82
2022/11/14 00:30:46;;;;;;;20.75;17.50;;;;;;;;;;5243893;28;20052;-82
2022/11/14 00:33:19;;;;;;;19.08;16.65;;;;;;;;;;5243917;28;20014;-82
2022/11/14 00:35:54;;;;;;;21.27;16.20;;;;;;;;;;5259669;28;20034;-82
2022/11/14 00:38:25;;;;;;;20.25;16.20;;;;;;;;;;5245085;28;20073;-82
2022/11/14 00:40:56;;;;;;;18.58;15.95;;;;;;;;;;5244092;28;20167;-82
2022/11/14 00:43:27;;;;;;;20.98;16.15;;;;;;;;;;5244397;28;20100;-82
2022/11/14 00:45:59;;;;;;;19.48;15.18;;;;;;;;;;5259110;28;20442;-81
2022/11/14 00:48:30;;;;;;;21.27;16.50;;;;;;;;;;5258558;28;20034;-82
2022/11/14 00:51:01;;;;;;;20.15;16.20;;;;;;;;;;5243830;28;20030;-82
2022/11/14 00:53:32;;;;;;;19.05;15.30;;;;;;;;;;5259119;28;20022;-82
2022/11/14 00:56:04;;;;;;;20.23;16.25;;;;;;;;;;5243931;28;20402;-81
2022/11/14 00:58:35;;;;;;;20.00;15.68;;;;;;;;;;5258862;28;20030;-82
2022/11/14 01:01:06;;;;;;;17.13;15.33;;;;;;;;;;5263222;28;20060;-81
2022/11/14 01:03:37;;;;;;;17.03;14.87;;;;;;;;;;5264898;28;20330;-82
2022/11/14 01:06:10;;;;;;;17.17;14.30;;;;;;;;;;5264950;28;20271;-82
2022/11/14 01:08:41;;;;;;;17.83;14.60;;;;;;;;;;5250497;28;20363;-81
2022/11/14 01:11:15;;;;;;;16.40;13.93;;;;;;;;;;5243973;28;20026;-82
2022/11/14 01:13:46;;;;;;;15.65;13.95;;;;;;;;;;5243819;28;20034;-82
2022/11/14 01:16:18;;;;;;;16.73;13.30;;;;;;;;;;5242543;28;20022;-82
2022/11/14 01:18:50;;;;;;;17.60;13.48;;;;;;;;;;5259526;28;20022;-82
2022/11/14 01:21:21;;;;;;;16.20;12.57;;;;;;;;;;5242580;28;20029;-82
2022/11/14 01:23:52;;;;;;;17.05;13.00;;;;;;;;;;5244671;28;20279;-82
2022/11/14 01:26:23;;;;;;;15.68;13.05;;;;;;;;;;5241852;28;20034;-82
2022/11/14 01:28:54;;;;;;;15.35;12.07;;;;;;;;;;5258909;28;20478;-82
2022/11/14 01:31:26;;;;;;;15.63;12.67;;;;;;;;;;5243162;28;20026;-82
2022/11/14 01:33:57;;;;;;;13.77;11.90;;;;;;;;;;5243295;28;20292;-81
2022/11/14 01:36:28;;;;;;;15.23;12.75;;;;;;;;;;5241945;28;20053;-82
2022/11/14 01:38:59;;;;;;;15.13;12.87;;;;;;;;;;5243689;28;20025;-81
2022/11/14 01:41:30;;;;;;;15.02;11.93;;;;;;;;;;5260919;28;20287;-82
2022/11/14 01:44:02;;;;;;;15.80;12.27;;;;;;;;;;5262665;28;20394;-82
2022/11/14 01:46:35;;;;;;;14.02;11.95;;;;;;;;;;5263626;28;20375;-83
2022/11/14 01:49:13;;;;;;;16.83;12.23;;;;;;;;;;5284728;28;20024;-82
2022/11/14 01:51:55;;;;;;;14.48;12.07;;;;;;;;;;5266014;28;20555;-82
2022/11/14 01:54:28;;;;;;;17.13;12.13;;;;;;;;;;5283104;28;20067;-82
2022/11/14 01:57:00;;;;;;;14.63;11.60;;;;;;;;;;5284730;28;20021;-82
2022/11/14 01:59:33;;;;;;;15.38;12.27;;;;;;;;;;5284547;28;20021;-82
2022/11/14 02:02:11;;;;;;;16.48;12.50;;;;;;;;;;5283432;28;20219;-82
2022/11/14 02:04:45;;;;;;;15.52;11.57;;;;;;;;;;5282816;28;20482;-82
2022/11/14 02:07:16;;;;;;;16.45;12.65;;;;;;;;;;5284294;28;20377;-82
2022/11/14 02:09:47;;;;;;;16.83;13.27;;;;;;;;;;5266224;28;20025;-82
2022/11/14 02:12:19;;;;;;;15.68;13.27;;;;;;;;;;5266021;28;20104;-82
2022/11/14 02:14:51;;;;;;;15.27;13.00;;;;;;;;;;5284667;28;20040;-82
2022/11/14 02:17:23;;;;;;;13.73;11.93;;;;;;;;;;5283903;28;20045;-82
2022/11/14 02:20:10;;;;;;;15.98;13.25;;;;;;;;;;5284520;28;20061;-82
2022/11/14 02:22:41;;;;;;;18.27;12.63;;;;;;;;;;5282603;28;20025;-82
2022/11/14 02:25:15;;;;;;;16.88;12.48;;;;;;;;;;5284281;28;20032;-82
2022/11/14 02:27:46;;;;;;;14.00;12.30;;;;;;;;;;5284102;28;20082;-82
2022/11/14 02:30:19;;;;;;;14.20;12.23;;;;;;;;;;5270835;28;20053;-82
2022/11/14 02:32:50;;;;;;;16.42;12.73;;;;;;;;;;5263363;28;20029;-82
2022/11/14 02:35:21;;;;;;;17.38;12.85;;;;;;;;;;5262893;28;20068;-81
2022/11/14 02:37:53;;;;;;;13.90;12.03;;;;;;;;;;5262686;28;20013;-82
2022/11/14 02:40:24;;;;;;;15.50;12.95;;;;;;;;;;5264692;28;20307;-81
2022/11/14 02:42:55;;;;;;;19.60;13.10;;;;;;;;;;5264960;28;20026;-81
2022/11/14 02:45:26;;;;;;;13.73;11.30;;;;;;;;;;5265081;28;20634;-82
2022/11/14 02:47:57;;;;;;;18.52;12.95;;;;;;;;;;5264978;28;20276;-82
2022/11/14 02:50:29;;;;;;;14.10;12.60;;;;;;;;;;5265608;28;20025;-82
2022/11/14 02:53:00;;;;;;;14.98;12.18;;;;;;;;;;5264951;28;20398;-82
2022/11/14 02:55:32;;;;;;;16.33;12.50;;;;;;;;;;5265044;28;20148;-81
2022/11/14 02:58:03;;;;;;;14.97;12.67;;;;;;;;;;5263677;28;20271;-82
2022/11/14 03:00:34;;;;;;;14.07;12.07;;;;;;;;;;5271666;28;20274;-82
2022/11/14 03:03:05;;;;;;;17.03;12.50;;;;;;;;;;5283826;28;20850;-82
2022/11/14 03:05:36;;;;;;;16.93;12.70;;;;;;;;;;5283270;28;20612;-82
2022/11/14 03:08:07;;;;;;;16.13;12.20;;;;;;;;;;5274098;28;20280;-82
2022/11/14 03:10:39;;;;;;;15.27;12.40;;;;;;;;;;5261442;28;20288;-82
2022/11/14 03:13:10;;;;;;;14.18;11.30;;;;;;;;;;5261345;28;20273;-82
2022/11/14 03:15:41;;;;;;;14.80;12.40;;;;;;;;;;5262375;28;20033;-82
2022/11/14 03:18:12;;;;;;;15.60;11.90;;;;;;;;;;5262478;28;20029;-82
2022/11/14 03:20:43;;;;;;;15.20;11.57;;;;;;;;;;5262335;28;20276;-82
2022/11/14 03:23:14;;;;;;;14.10;12.40;;;;;;;;;;5262330;28;20347;-81
2022/11/14 03:25:46;;;;;;;17.48;13.02;;;;;;;;;;5262679;28;20276;-81
2022/11/14 03:28:17;;;;;;;15.60;12.23;;;;;;;;;;5261837;28;20359;-81
2022/11/14 03:30:48;;;;;;;17.03;13.40;;;;;;;;;;5262227;28;20276;-81
2022/11/14 03:33:19;;;;;;;14.90;12.60;;;;;;;;;;5262164;28;20274;-81
2022/11/14 03:35:51;;;;;;;15.27;12.75;;;;;;;;;;5262647;28;20256;-81
2022/11/14 03:38:22;;;;;;;18.45;13.65;;;;;;;;;;5262199;28;20374;-83
2022/11/14 03:40:53;;;;;;;20.75;14.25;;;;;;;;;;5261436;28;20037;-82
2022/11/14 03:43:25;;;;;;;15.80;12.57;;;;;;;;;;5262901;28;20018;-82
2022/11/14 03:45:59;;;;;;;18.83;13.63;;;;;;;;;;5262562;28;20517;-82
2022/11/14 03:48:31;;;;;;;21.20;14.30;;;;;;;;;;5260718;28;20667;-82
2022/11/14 03:51:02;;;;;;;18.00;13.35;;;;;;;;;;5264393;28;20032;-81
2022/11/14 03:53:33;;;;;;;17.98;13.57;;;;;;;;;;5265683;28;20025;-82
2022/11/14 03:56:05;;;;;;;17.10;12.98;;;;;;;;;;5265767;28;20025;-81
2022/11/14 03:58:36;;;;;;;16.38;12.77;;;;;;;;;;5265409;28;20497;-82
2022/11/14 04:01:07;;;;;;;16.75;12.88;;;;;;;;;;5278893;28;20036;-81
2022/11/14 04:03:38;;;;;;;13.93;12.43;;;;;;;;;;5268592;28;20021;-82
2022/11/14 04:06:10;;;;;;;15.98;12.45;;;;;;;;;;5286405;28;20075;-82
2022/11/14 04:08:41;;;;;;;15.13;12.23;;;;;;;;;;5286398;28;20024;-82
2022/11/14 04:11:12;;;;;;;18.13;13.43;;;;;;;;;;5286371;28;20287;-81
2022/11/14 04:13:43;;;;;;;16.95;13.05;;;;;;;;;;5286633;28;20017;-81
2022/11/14 04:16:14;;;;;;;17.17;12.80;;;;;;;;;;5268315;28;20504;-81
2022/11/14 04:18:46;;;;;;;17.42;12.77;;;;;;;;;;5286344;28;20021;-81
2022/11/14 04:21:17;;;;;;;17.27;12.88;;;;;;;;;;5286156;28;20021;-82
2022/11/14 04:23:48;;;;;;;15.82;12.90;;;;;;;;;;5268256;28;20025;-82
2022/11/14 04:26:19;;;;;;;20.60;13.55;;;;;;;;;;5268157;28;20068;-82
2022/11/14 04:28:50;;;;;;;18.35;12.88;;;;;;;;;;5285116;28;20027;-81
2022/11/14 04:31:22;;;;;;;18.27;12.47;;;;;;;;;;5263660;28;20028;-81
2022/11/14 04:33:53;;;;;;;16.98;12.60;;;;;;;;;;5265422;28;20264;-81
2022/11/14 04:36:24;;;;;;;18.10;13.53;;;;;;;;;;5263705;28;20029;-82
2022/11/14 04:38:55;;;;;;;18.33;12.47;;;;;;;;;;5263834;28;20257;-81
2022/11/14 04:41:26;;;;;;;19.40;13.53;;;;;;;;;;5264484;28;20355;-81
2022/11/14 04:43:57;;;;;;;23.77;13.00;;;;;;;;;;5264791;28;20273;-81
2022/11/14 04:46:29;;;;;;;17.03;13.13;;;;;;;;;;5264550;28;20269;-81
2022/11/14 04:49:00;;;;;;;19.53;13.10;;;;;;;;;;5265086;28;20644;-81
2022/11/14 04:51:31;;;;;;;19.95;13.85;;;;;;;;;;5264457;28;20280;-81
2022/11/14 04:54:02;;;;;;;18.33;13.23;;;;;;;;;;5265245;28;20370;-82
2022/11/14 04:56:33;;;;;;;21.15;14.40;;;;;;;;;;5264597;28;20415;-81
2022/11/14 04:59:05;;;;;;;16.67;14.03;;;;;;;;;;5263909;28;20108;-81
2022/11/14 05:01:36;;;;;;;18.27;14.60;;;;;;;;;;5280692;28;20279;-82
2022/11/14 05:04:07;;;;;;;21.20;15.48;;;;;;;;;;5286216;28;20329;-81
2022/11/14 05:06:38;;;;;;;20.35;14.60;;;;;;;;;;5285715;28;20108;-81
2022/11/14 05:09:09;;;;;;;19.23;13.57;;;;;;;;;;5268457;28;20021;-82
2022/11/14 05:11:40;;;;;;;17.47;13.77;;;;;;;;;;5264253;28;20272;-82
2022/11/14 05:14:12;;;;;;;19.83;14.23;;;;;;;;;;5265201;28;20288;-82
2022/11/14 05:16:43;;;;;;;20.30;14.88;;;;;;;;;;5265553;28;20264;-82
2022/11/14 05:19:14;;;;;;;19.70;14.90;;;;;;;;;;5266182;28;20025;-82
2022/11/14 05:21:45;;;;;;;18.67;14.60;;;;;;;;;;5264703;28;20268;-82
2022/11/14 05:24:18;;;;;;;21.63;14.50;;;;;;;;;;5262959;28;20069;-82
2022/11/14 05:26:49;;;;;;;19.75;14.65;;;;;;;;;;5262904;28;20390;-81
2022/11/14 05:29:20;;;;;;;20.00;15.20;;;;;;;;;;5264398;28;20057;-81
2022/11/14 05:31:51;;;;;;;17.83;14.57;;;;;;;;;;5264088;28;20260;-81
2022/11/14 05:34:23;;;;;;;19.47;13.97;;;;;;;;;;5263914;28;20268;-81
2022/11/14 05:36:54;;;;;;;21.85;15.63;;;;;;;;;;5262756;28;20260;-82
2022/11/14 05:39:25;;;;;;;23.77;15.77;;;;;;;;;;5264086;28;20055;-81
2022/11/14 05:41:56;;;;;;;23.67;14.93;;;;;;;;;;5263450;28;20029;-81
2022/11/14 05:44:28;;;;;;;22.02;14.82;;;;;;;;;;5263941;28;20268;-82
2022/11/14 05:46:59;;;;;;;24.10;16.70;;;;;;;;;;5263529;28;20513;-81
2022/11/14 05:49:30;;;;;;;25.63;16.60;;;;;;;;;;5263160;28;20268;-82
2022/11/14 05:52:01;;;;;;;25.27;15.27;;;;;;;;;;5263925;28;20295;-81
2022/11/14 05:54:32;;;;;;;22.63;16.08;;;;;;;;;;5263744;28;20367;-81
2022/11/14 05:57:04;;;;;;;20.23;14.23;;;;;;;;;;5270446;28;20036;-81
2022/11/14 05:59:35;;;;;;;24.60;14.23;;;;;;;;;;5283616;28;20277;-82
2022/11/14 06:02:09;;;;;;;19.60;14.67;;;;;;;;;;5267243;28;20385;-81
2022/11/14 06:04:40;;;;;;;20.08;14.75;;;;;;;;;;5284748;28;20794;-82
2022/11/14 06:07:11;;;;;;;23.50;14.30;;;;;;;;;;5265859;28;20064;-82
2022/11/14 06:09:43;;;;;;;20.43;14.43;;;;;;;;;;5284868;28;20025;-82
2022/11/14 06:12:14;;;;;;;20.48;14.10;;;;;;;;;;5265802;28;20267;-82
2022/11/14 06:14:45;;;;;;;20.30;15.37;;;;;;;;;;5266815;28;20048;-82
2022/11/14 06:17:17;;;;;;;19.33;13.35;;;;;;;;;;5284299;28;20601;-81
2022/11/14 06:19:48;;;;;;;18.23;14.37;;;;;;;;;;5266768;28;20036;-81
2022/11/14 06:22:19;;;;;;;21.48;14.07;;;;;;;;;;5266694;28;20314;-81
2022/11/14 06:24:50;;;;;;;19.53;15.13;;;;;;;;;;5284730;28;20035;-81
2022/11/14 06:27:21;;;;;;;22.13;15.37;;;;;;;;;;5284403;28;20671;-82
2022/11/14 06:29:53;;;;;;;22.67;15.75;;;;;;;;;;5284318;28;20279;-82
2022/11/14 06:32:24;;;;;;;19.70;15.27;;;;;;;;;;5284576;28;20033;-81
2022/11/14 06:34:55;;;;;;;23.70;16.08;;;;;;;;;;5284068;28;20063;-82
2022/11/14 06:37:26;;;;;;;24.77;16.60;;;;;;;;;;5284392;28;20029;-81
2022/11/14 06:39:57;;;;;;;21.25;15.88;;;;;;;;;;5284147;28;20274;-82
2022/11/14 06:42:28;;;;;;;23.57;15.50;;;;;;;;;;5265823;28;20128;-81
2022/11/14 06:45:00;;;;;;;23.85;15.27;;;;;;;;;;5283539;28;20302;-81
2022/11/14 06:47:31;;;;;;;22.30;16.08;;;;;;;;;;5283687;28;20057;-83
2022/11/14 06:50:02;;;;;;;21.10;15.13;;;;;;;;;;5283737;28;20029;-80
2022/11/14 06:52:33;;;;;;;26.02;16.02;;;;;;;;;;5283689;28;20031;-83
2022/11/14 06:55:05;;;;;;;23.23;15.20;;;;;;;;;;5284560;28;20044;-81
2022/11/14 06:57:36;;;;;;;19.58;14.68;;;;;;;;;;5284249;28;20366;-81
2022/11/14 07:00:08;;;;;;;22.05;15.63;;;;;;;;;;5284860;28;20028;-81
2022/11/14 07:02:39;;;;;;;20.55;15.32;;;;;;;;;;5267990;28;20025;-81
2022/11/14 07:05:10;;;;;;;24.65;16.05;;;;;;;;;;5266670;28;20033;-81
2022/11/14 07:07:41;;;;;;;22.88;15.65;;;;;;;;;;5278542;28;20108;-80
2022/11/14 07:10:13;;;;;;;21.25;15.40;;;;;;;;;;5263165;28;20033;-81
2022/11/14 07:12:44;;;;;;;26.85;17.55;;;;;;;;;;5263731;28;20026;-81
2022/11/14 07:15:15;;;;;;;24.92;17.27;;;;;;;;;;5245504;28;20061;-82
2022/11/14 07:17:47;;;;;;;23.50;17.20;;;;;;;;;;5261137;28;20393;-81
2022/11/14 07:20:18;;;;;;;23.30;16.88;;;;;;;;;;5262170;28;20374;-81
2022/11/14 07:22:50;;;;;;;24.38;16.60;;;;;;;;;;5261362;28;20022;-81
2022/11/14 07:25:22;;;;;;;27.15;17.92;;;;;;;;;;5262691;28;20474;-80
2022/11/14 07:27:55;;;;;;;21.73;16.85;;;;;;;;;;5264472;28;20029;-81
2022/11/14 07:30:26;;;;;;;22.67;16.25;;;;;;;;;;5265287;28;20070;-82
2022/11/14 07:32:58;;;;;;;22.40;16.17;;;;;;;;;;5264629;28;20047;-83
2022/11/14 07:35:29;;;;;;;22.05;17.15;;;;;;;;;;5279064;28;20025;-81
2022/11/14 07:38:01;;;;;;;30.85;22.65;;;;;;;;;;5267922;28;20025;-82
2022/11/14 07:40:32;;;;;;;38.35;28.40;;;;;;;;;;5264847;28;20025;-83
2022/11/14 07:43:03;;;;;;;36.50;27.87;;;;;;;;;;5284626;28;20021;-82
2022/11/14 07:45:35;;;;;;;31.75;26.92;;;;;;;;;;5283857;28;20287;-83
2022/11/14 07:48:06;;;;;;;26.52;22.55;;;;;;;;;;5283595;28;20057;-83
2022/11/14 07:50:37;;;;;;;24.35;18.42;;;;;;;;;;5283072;28;20090;-82
2022/11/14 07:53:08;;;;;;;19.05;14.68;;;;;;;;;;5264789;28;20010;-82
2022/11/14 07:55:40;;;;;;;17.83;13.20;;;;;;;;;;5282584;28;20458;-82
2022/11/14 07:58:11;;;;;;;14.98;10.52;;;;;;;;;;5260977;28;20017;-82
2022/11/14 08:00:42;;;;;;;11.65;8.45;;;;;;;;;;5271237;28;20049;-82
2022/11/14 08:03:13;;;;;;;11.07;8.07;;;;;;;;;;5265095;28;20124;-82
2022/11/14 08:05:45;;;;;;;12.55;8.45;;;;;;;;;;5282779;28;20284;-82
2022/11/14 08:08:16;;;;;;;10.95;8.70;;;;;;;;;;5265250;28;20024;-82
2022/11/14 08:10:47;;;;;;;14.18;8.48;;;;;;;;;;5282696;28;20049;-82
2022/11/14 08:13:18;;;;;;;12.00;8.27;;;;;;;;;;5264930;28;20432;-82
2022/11/14 08:15:50;;;;;;;10.77;8.45;;;;;;;;;;5282151;28;20276;-81
2022/11/14 08:18:21;;;;;;;14.27;9.05;;;;;;;;;;5282572;28;20021;-81
2022/11/14 08:20:53;;;;;;;11.63;8.38;;;;;;;;;;5282057;28;20474;-81
2022/11/14 08:23:24;;;;;;;11.48;9.05;;;;;;;;;;5264532;28;20021;-82
2022/11/14 08:25:57;;;;;;;12.03;8.97;;;;;;;;;;5264504;28;20482;-81
2022/11/14 08:28:28;;;;;;;10.48;8.07;;;;;;;;;;5282238;28;20264;-82
2022/11/14 08:31:00;;;;;;;12.43;8.60;;;;;;;;;;5282874;28;20496;-82
2022/11/14 08:33:32;;;;;;;13.63;9.32;;;;;;;;;;5282677;28;20399;-82
2022/11/14 08:36:04;;;;;;;12.85;9.18;;;;;;;;;;5284681;28;20040;-84
2022/11/14 08:38:36;;;;;;;13.75;9.70;;;;;;;;;;5286441;28;20373;-82
2022/11/14 08:41:07;;;;;;;14.30;9.57;;;;;;;;;;5285469;28;20033;-81
2022/11/14 08:43:38;;;;;;;12.50;9.40;;;;;;;;;;5285789;28;20413;-82
2022/11/14 08:46:09;;;;;;;11.83;9.70;;;;;;;;;;5285755;28;20484;-82
2022/11/14 08:48:40;;;;;;;12.32;9.32;;;;;;;;;;5285725;28;20295;-82
2022/11/14 08:51:12;;;;;;;11.45;9.27;;;;;;;;;;5285938;28;20033;-82
2022/11/14 08:53:43;;;;;;;14.97;9.17;;;;;;;;;;5285136;28;20079;-82
2022/11/14 08:56:14;;;;;;;13.85;10.10;;;;;;;;;;5285554;28;20291;-82
2022/11/14 08:58:45;;;;;;;11.43;9.63;;;;;;;;;;5266907;28;20022;-82
2022/11/14 09:01:16;;;;;;;12.40;8.85;;;;;;;;;;5285477;28;20252;-82
2022/11/14 09:03:48;;;;;;;12.60;9.15;;;;;;;;;;5284577;28;20020;-82
2022/11/14 09:06:19;;;;;;;10.70;9.18;;;;;;;;;;5266915;28;20018;-82
2022/11/14 09:08:51;;;;;;;12.52;9.45;;;;;;;;;;5285163;28;20029;-82
2022/11/14 09:11:22;;;;;;;12.85;9.40;;;;;;;;;;5267118;28;20024;-81
2022/11/14 09:13:53;;;;;;;13.98;9.98;;;;;;;;;;5284724;28;20021;-82
2022/11/14 09:16:24;;;;;;;11.98;10.00;;;;;;;;;;5284916;28;20382;-82
2022/11/14 09:18:55;;;;;;;11.77;10.13;;;;;;;;;;5263735;28;20026;-82
2022/11/14 09:21:27;;;;;;;13.80;10.07;;;;;;;;;;5263824;28;20760;-81
2022/11/14 09:23:58;;;;;;;12.83;10.20;;;;;;;;;;5263522;28;20316;-82
2022/11/14 09:26:29;;;;;;;13.43;9.95;;;;;;;;;;5261988;28;20304;-82
2022/11/14 09:29:01;;;;;;;13.10;9.77;;;;;;;;;;5262536;28;20492;-81
2022/11/14 09:31:32;;;;;;;14.63;10.07;;;;;;;;;;5262357;28;20282;-82
2022/11/14 09:34:03;;;;;;;14.32;10.30;;;;;;;;;;5263437;28;20025;-82
2022/11/14 09:36:34;;;;;;;13.93;10.55;;;;;;;;;;5263299;28;20026;-82
2022/11/14 09:39:05;;;;;;;12.57;10.37;;;;;;;;;;5263888;28;20025;-82
2022/11/14 09:41:54;;;;;;;15.00;10.50;;;;;;;;;;5263575;28;20283;-82
2022/11/14 09:44:43;;;;;;;11.48;10.15;;;;;;;;;;5263155;28;20416;-82
2022/11/14 09:47:17;;;;;;;12.52;9.70;;;;;;;;;;5262270;28;20049;-82
2022/11/14 09:49:50;;;;;;;16.52;9.90;;;;;;;;;;5263418;28;20076;-82
2022/11/14 09:52:35;;;;;;;13.77;10.00;;;;;;;;;;5261364;28;20120;-82
2022/11/14 09:55:11;;;;;;;12.63;10.90;;;;;;;;;;5263214;28;20082;-82
2022/11/14 09:57:43;;;;;;;13.63;10.90;;;;;;;;;;5262691;28;20041;-82
2022/11/14 10:00:16;;;;;;;14.07;10.30;;;;;;;;;;5269142;28;20470;-82
2022/11/14 10:02:56;;;;;;;13.10;10.90;;;;;;;;;;5284105;28;20028;-82
2022/11/14 10:05:30;;;;;;;11.57;10.15;;;;;;;;;;5283758;28;20052;-82
2022/11/14 10:08:23;;;;;;;10.55;9.13;;;;;;;;;;5284045;28;20659;-82
2022/11/14 10:10:57;;;;;;;12.98;8.70;;;;;;;;;;5283823;28;20024;-82
2022/11/14 10:13:38;;;;;;;11.82;8.10;;;;;;;;;;5284167;28;20051;-82
2022/11/14 10:16:17;;;;;;;10.77;7.70;;;;;;;;;;5283587;28;20031;-82
2022/11/14 10:19:07;;;;;;;9.32;7.80;;;;;;;;;;5265223;28;20108;-82
2022/11/14 10:21:44;;;;;;;9.40;7.97;;;;;;;;;;5283737;28;20053;-82
2022/11/14 10:24:30;;;;;;;10.45;7.72;;;;;;;;;;5284135;28;20111;-82
2022/11/14 10:27:06;;;;;;;8.43;7.43;;;;;;;;;;5265255;28;20036;-82
2022/11/14 10:29:57;;;;;;;9.68;7.82;;;;;;;;;;5283681;28;20032;-83
2022/11/14 10:32:38;;;;;;;11.00;7.45;;;;;;;;;;5282663;28;20041;-82
2022/11/14 10:35:34;;;;;;;10.45;7.40;;;;;;;;;;5283555;28;20472;-83
2022/11/14 10:38:05;;;;;;;10.18;7.65;;;;;;;;;;5284032;28;20492;-83
2022/11/14 10:40:38;;;;;;;8.75;7.38;;;;;;;;;;5265565;28;20025;-82
2022/11/14 10:43:16;;;;;;;9.63;7.50;;;;;;;;;;5283977;28;20518;-83
2022/11/14 10:45:56;;;;;;;9.32;7.25;;;;;;;;;;5280189;28;20038;-83
2022/11/14 10:48:30;;;;;;;8.18;7.35;;;;;;;;;;5256205;28;20141;-83
2022/11/14 10:51:07;;;;;;;8.82;7.72;;;;;;;;;;5241376;28;20038;-83
2022/11/14 10:53:41;;;;;;;10.85;8.13;;;;;;;;;;5241727;28;20037;-83
2022/11/14 10:56:13;;;;;;;8.77;7.97;;;;;;;;;;5241502;28;20037;-83
2022/11/14 10:58:44;;;;;;;9.95;7.78;;;;;;;;;;5240533;28;20529;-83
2022/11/14 11:01:33;;;;;;;9.67;8.20;;;;;;;;;;5260497;28;20117;-83
2022/11/14 11:04:23;;;;;;;11.80;8.00;;;;;;;;;;5260334;28;20537;-83
2022/11/14 11:06:56;;;;;;;9.68;7.65;;;;;;;;;;5261976;28;20225;-83
2022/11/14 11:12:18;;;;;;;11.50;7.90;;;;;;;;;;5261989;28;20561;-83
2022/11/14 11:15:10;;;;;;;9.25;8.35;;;;;;;;;;5261095;28;20033;-82
2022/11/14 11:17:57;;;;;;;10.65;8.60;;;;;;;;;;5250523;28;20034;-83
2022/11/14 11:20:40;;;;;;;9.13;8.23;;;;;;;;;;5255925;28;20026;-83
2022/11/14 11:23:11;;;;;;;10.45;8.73;;;;;;;;;;5241578;28;20018;-83
2022/11/14 11:25:42;;;;;;;9.80;8.70;;;;;;;;;;5241302;28;20447;-83
2022/11/14 11:28:15;;;;;;;10.73;9.63;;;;;;;;;;5241595;28;20028;-83
2022/11/14 11:30:56;;;;;;;9.80;8.80;;;;;;;;;;5241177;28;20028;-83
2022/11/14 11:33:28;;;;;;;9.93;9.02;;;;;;;;;;5240816;28;20025;-83
2022/11/14 11:36:02;;;;;;;10.25;9.00;;;;;;;;;;5241168;28;20030;-83
2022/11/14 11:38:33;;;;;;;10.00;9.00;;;;;;;;;;5240967;28;20079;-83
2022/11/14 11:41:23;;;;;;;12.85;9.18;;;;;;;;;;5256245;28;20557;-83
2022/11/14 11:44:02;;;;;;;11.02;8.60;;;;;;;;;;5240884;28;20022;-83
2022/11/14 11:46:33;;;;;;;9.98;8.98;;;;;;;;;;5241866;28;20100;-83
2022/11/14 11:49:09;;;;;;;12.27;9.35;;;;;;;;;;5244011;28;20113;-83
2022/11/14 11:51:43;;;;;;;12.98;9.77;;;;;;;;;;5262031;28;20018;-83
2022/11/14 11:54:16;;;;;;;10.95;9.75;;;;;;;;;;5262159;28;20096;-83
2022/11/14 11:56:50;;;;;;;11.68;10.13;;;;;;;;;;5261294;28;20398;-83
2022/11/14 11:59:32;;;;;;;11.85;10.50;;;;;;;;;;5261514;28;20112;-83
2022/11/14 12:02:16;;;;;;;12.55;10.57;;;;;;;;;;5263796;28;20075;-82
2022/11/14 12:04:48;;;;;;;13.80;10.88;;;;;;;;;;5263894;28;20029;-82
2022/11/14 12:07:42;;;;;;;12.90;11.68;;;;;;;;;;5264024;28;20468;-83
2022/11/14 12:10:22;;;;;;;14.65;13.23;;;;;;;;;;5283231;28;20413;-82
2022/11/14 12:13:12;;;;;;;14.00;12.57;;;;;;;;;;5267435;28;20032;-82
2022/11/14 12:15:49;;;;;;;16.40;13.60;;;;;;;;;;5285920;28;20516;-82
2022/11/14 12:18:20;;;;;;;14.57;13.18;;;;;;;;;;5267550;28;20116;-82
2022/11/14 12:20:52;;;;;;;15.30;13.67;;;;;;;;;;5284676;28;20100;-82
2022/11/14 12:23:30;;;;;;;16.67;14.33;;;;;;;;;;5286064;28;20017;-82
2022/11/14 12:26:08;;;;;;;17.52;14.80;;;;;;;;;;5285812;28;20275;-81
2022/11/14 12:28:46;;;;;;;17.90;16.02;;;;;;;;;;5285735;28;20048;-82
2022/11/14 12:31:17;;;;;;;19.02;16.15;;;;;;;;;;5285118;28;20034;-82
2022/11/14 12:33:52;;;;;;;18.08;15.98;;;;;;;;;;5284569;28;20496;-82
2022/11/14 12:36:30;;;;;;;19.35;17.08;;;;;;;;;;5284918;28;20032;-82
2022/11/14 12:39:02;;;;;;;21.35;17.50;;;;;;;;;;5285747;28;20041;-82
2022/11/14 12:41:34;;;;;;;18.80;16.05;;;;;;;;;;5267711;28;20064;-82
2022/11/14 12:44:15;;;;;;;19.85;16.30;;;;;;;;;;5285717;28;20018;-82
2022/11/14 12:47:06;;;;;;;19.80;16.60;;;;;;;;;;5262053;28;20049;-82
2022/11/14 12:49:47;;;;;;;19.80;16.63;;;;;;;;;;5262673;28;20025;-82
2022/11/14 12:52:36;;;;;;;20.00;17.88;;;;;;;;;;5263834;28;20038;-82
2022/11/14 12:55:17;;;;;;;21.75;17.98;;;;;;;;;;5263806;28;20497;-82
2022/11/14 12:57:59;;;;;;;23.73;19.02;;;;;;;;;;5264009;28;20052;-82
2022/11/14 13:00:32;;;;;;;23.00;17.77;;;;;;;;;;5272278;28;20031;-82
2022/11/14 13:03:22;;;;;;;21.23;17.65;;;;;;;;;;5285536;28;20021;-82
2022/11/14 13:05:58;;;;;;;20.63;17.35;;;;;;;;;;5284846;28;20449;-82
2022/11/14 13:08:38;;;;;;;22.58;17.90;;;;;;;;;;5284613;28;20023;-82
2022/11/14 13:21:44;;;;;;;19.85;16.67;;;;;;;;;;5265850;28;20033;-82
2022/11/14 13:23:24;;;;;;;13.27;11.88;;;;;;;;;;5263232;28;20425;-82
2022/11/14 13:26:24;;;;;;;10.98;9.43;;;;;;;;;;5263603;28;20033;-83
2022/11/14 13:28:56;;;;;;;11.13;7.57;;;;;;;;;;5263392;28;20036;-82
2022/11/14 13:31:34;;;;;;;9.88;8.35;;;;;;;;;;5263453;28;20517;-84
2022/11/14 13:34:25;;;;;;;12.25;8.10;;;;;;;;;;5261612;28;20120;-83
2022/11/14 13:37:08;;;;;;;8.20;7.35;;;;;;;;;;5263448;28;20033;-83
2022/11/14 13:39:46;;;;;;;10.60;8.20;;;;;;;;;;5263217;28;20028;-83
2022/11/14 13:42:17;;;;;;;8.60;7.35;;;;;;;;;;5263438;28;20033;-82
2022/11/14 13:44:58;;;;;;;11.77;7.68;;;;;;;;;;5263792;28;20043;-83
2022/11/14 13:47:29;;;;;;;10.05;7.63;;;;;;;;;;5262748;28;20562;-83
2022/11/14 13:50:00;;;;;;;10.13;7.80;;;;;;;;;;5262142;28;20116;-83
2022/11/14 13:52:33;;;;;;;14.10;8.40;;;;;;;;;;5261876;28;20285;-83
2022/11/14 13:55:04;;;;;;;9.68;7.80;;;;;;;;;;5261858;28;20330;-83
2022/11/14 13:57:49;;;;;;;8.63;7.13;;;;;;;;;;5261882;28;20026;-83
2022/11/14 14:00:20;;;;;;;8.60;7.15;;;;;;;;;;5267810;28;20037;-83
2022/11/14 14:03:09;;;;;;;9.02;7.45;;;;;;;;;;5284416;28;20048;-82
2022/11/14 14:05:49;;;;;;;11.20;7.32;;;;;;;;;;5284406;28;20033;-83
2022/11/14 14:08:36;;;;;;;12.00;7.32;;;;;;;;;;5262033;28;20113;-83
2022/11/14 14:11:10;;;;;;;11.80;7.65;;;;;;;;;;5261289;28;20045;-83
2022/11/14 14:13:55;;;;;;;9.73;7.45;;;;;;;;;;5261908;28;20033;-83
2022/11/14 14:16:39;;;;;;;7.97;7.05;;;;;;;;;;5262780;28;20211;-83
2022/11/14 14:19:16;;;;;;;9.65;7.93;;;;;;;;;;5260793;28;20496;-83
2022/11/14 14:21:47;;;;;;;10.85;7.88;;;;;;;;;;5262625;28;20025;-83
2022/11/14 14:24:24;;;;;;;9.03;7.30;;;;;;;;;;5262011;28;20021;-82
2022/11/14 14:26:58;;;;;;;10.25;8.00;;;;;;;;;;5262201;28;20029;-83
2022/11/14 14:29:32;;;;;;;10.45;8.10;;;;;;;;;;5262793;28;20029;-83
2022/11/14 14:32:13;;;;;;;10.48;8.32;;;;;;;;;;5261018;28;20045;-82
2022/11/14 14:34:45;;;;;;;10.95;8.10;;;;;;;;;;5260988;28;20065;-83
2022/11/14 14:37:20;;;;;;;11.07;9.50;;;;;;;;;;5262116;28;20063;-83
2022/11/14 14:39:57;;;;;;;13.48;10.70;;;;;;;;;;5262803;28;20260;-83
2022/11/14 14:42:39;;;;;;;15.45;10.55;;;;;;;;;;5263970;28;20037;-82
2022/11/14 14:45:15;;;;;;;13.80;11.02;;;;;;;;;;5261799;28;20057;-83
2022/11/14 14:48:14;;;;;;;13.82;10.50;;;;;;;;;;5261167;28;20498;-83
2022/11/14 14:50:50;;;;;;;15.65;13.32;;;;;;;;;;5261604;28;20025;-83
2022/11/14 14:53:21;;;;;;;;;;;;;;;;;;5245407;28;20029;-83
2022/11/14 14:55:56;;;;;;;16.95;11.10;;;;;;;;;;5261086;28;20480;-83
2022/11/14 14:58:29;;;;;;;16.00;12.85;;;;;;;;;;5244263;28;20034;-83
2022/11/14 15:01:05;;;;;;;16.67;11.55;;;;;;;;;;5275273;28;20424;-83
2022/11/14 15:03:38;;;;;;;20.05;12.95;;;;;;;;;;5283786;28;20037;-82
2022/11/14 15:06:30;;;;;;;17.77;12.57;;;;;;;;;;5264903;28;20078;-82
2022/11/14 15:09:09;;;;;;;19.17;14.27;;;;;;;;;;5264504;28;20033;-82
2022/11/14 15:11:42;;;;;;;15.93;12.32;;;;;;;;;;5283128;28;20064;-82